Time;durP1;ratioP1;P1;durP2;ratioP2;P2;SDS_P1;SDS_P2;PMS_P1;PMS_P2;Temp;Humidity;BMP_temperature;BMP_pressure;BME280_temperature;BME280_humidity;BME280_pressure;Samples;Min_cycle;Max_cycle;Signal;HPM_P1;HPM_P2
2021/01/19 00:02:19;;;;;;;29.73;20.70;;;0.80;99.90;;;;;;5013715;28;20698;-79
2021/01/19 00:04:45;;;;;;;33.80;23.63;;;0.70;99.90;;;;;;5013843;28;20212;-71
2021/01/19 00:07:12;;;;;;;40.07;24.83;;;0.70;99.90;;;;;;5013584;28;20208;-71
2021/01/19 00:09:38;;;;;;;33.43;20.70;;;0.80;99.90;;;;;;5013648;28;20235;-72
2021/01/19 00:12:05;;;;;;;33.80;22.97;;;0.70;99.90;;;;;;5013435;28;20216;-70
2021/01/19 00:14:31;;;;;;;37.37;21.23;;;0.80;99.90;;;;;;5013474;28;20706;-71
2021/01/19 00:16:58;;;;;;;26.10;18.97;;;0.70;99.90;;;;;;5013386;28;20672;-71
2021/01/19 00:19:25;;;;;;;29.17;19.27;;;0.80;99.90;;;;;;5013683;28;20464;-71
2021/01/19 00:21:51;;;;;;;25.70;17.67;;;0.70;99.90;;;;;;5014246;28;20211;-71
2021/01/19 00:24:18;;;;;;;25.30;18.77;;;0.80;99.90;;;;;;5013180;28;20212;-71
2021/01/19 00:26:44;;;;;;;20.37;15.50;;;0.70;99.90;;;;;;5013617;28;20209;-71
2021/01/19 00:29:11;;;;;;;20.47;16.10;;;0.70;99.90;;;;;;5013212;28;20231;-72
2021/01/19 00:31:37;;;;;;;26.60;16.87;;;0.60;99.90;;;;;;5013860;28;20219;-77
2021/01/19 00:34:04;;;;;;;22.73;16.33;;;0.60;99.90;;;;;;5013095;28;20215;-71
2021/01/19 00:36:31;;;;;;;19.73;15.00;;;0.60;99.90;;;;;;5013313;28;20243;-71
2021/01/19 00:38:57;;;;;;;25.43;15.47;;;0.60;99.90;;;;;;5012908;28;20208;-78
2021/01/19 00:41:24;;;;;;;24.73;15.87;;;0.50;99.90;;;;;;5013211;28;20208;-72
2021/01/19 00:43:50;;;;;;;24.63;16.30;;;0.50;99.90;;;;;;5014022;28;20245;-79
2021/01/19 00:46:17;;;;;;;23.67;16.53;;;0.50;99.90;;;;;;5012783;28;20217;-72
2021/01/19 00:48:43;;;;;;;21.23;14.03;;;0.50;99.90;;;;;;5013089;28;20238;-72
2021/01/19 00:51:09;;;;;;;22.53;16.13;;;0.50;99.90;;;;;;5012742;28;20569;-77
2021/01/19 00:53:37;;;;;;;22.33;16.43;;;0.50;99.90;;;;;;5012648;28;20691;-71
2021/01/19 00:56:04;;;;;;;17.53;13.53;;;0.50;99.90;;;;;;5012507;28;20216;-72
2021/01/19 00:58:30;;;;;;;19.77;14.53;;;0.50;99.90;;;;;;5012997;28;20204;-71
2021/01/19 01:00:57;;;;;;;21.67;14.07;;;0.50;99.90;;;;;;5012661;28;20227;-71
2021/01/19 01:03:23;;;;;;;21.47;14.83;;;0.50;99.90;;;;;;5012629;28;20688;-72
2021/01/19 01:05:49;;;;;;;28.37;15.30;;;0.50;99.90;;;;;;5012941;28;20215;-72
2021/01/19 01:08:16;;;;;;;18.23;14.47;;;0.50;99.90;;;;;;5012277;28;20232;-72
2021/01/19 01:10:43;;;;;;;21.03;16.10;;;0.50;99.90;;;;;;5012683;28;20224;-82
2021/01/19 01:13:10;;;;;;;20.20;13.33;;;0.50;99.90;;;;;;5012397;28;20213;-72
2021/01/19 01:15:37;;;;;;;19.77;13.77;;;0.50;99.90;;;;;;5012714;28;20211;-76
2021/01/19 01:18:10;;;;;;;20.27;14.30;;;0.40;99.90;;;;;;5012047;28;20212;-74
2021/01/19 01:20:37;;;;;;;27.00;16.40;;;0.40;99.90;;;;;;5012503;28;20208;-77
2021/01/19 01:23:03;;;;;;;22.70;15.77;;;0.40;99.90;;;;;;5012386;28;20212;-75
2021/01/19 01:25:30;;;;;;;22.80;13.20;;;0.40;99.90;;;;;;5012445;28;20205;-77
2021/01/19 01:27:57;;;;;;;19.73;14.83;;;0.40;99.90;;;;;;5011835;28;20228;-71
2021/01/19 01:30:24;;;;;;;23.50;15.23;;;0.30;99.90;;;;;;5012277;28;20741;-71
2021/01/19 01:32:51;;;;;;;27.73;16.73;;;0.10;99.90;;;;;;5012294;28;20209;-74
2021/01/19 01:35:19;;;;;;;17.77;14.00;;;0.10;99.90;;;;;;5012235;28;20208;-75
2021/01/19 01:37:47;;;;;;;23.83;15.77;;;0.10;99.90;;;;;;5011921;28;20215;-74
2021/01/19 01:40:17;;;;;;;21.10;14.70;;;0.10;99.90;;;;;;5011947;28;20212;-74
2021/01/19 01:42:43;;;;;;;16.97;13.27;;;0.00;99.90;;;;;;5012322;28;20309;-77
2021/01/19 01:45:11;;;;;;;16.93;11.23;;;0.00;99.90;;;;;;5011395;28;20703;-80
2021/01/19 01:47:39;;;;;;;20.57;15.03;;;-0.10;99.90;;;;;;5011976;28;20215;-74
2021/01/19 01:50:09;;;;;;;18.20;13.40;;;-0.30;99.90;;;;;;5011545;28;20236;-73
2021/01/19 01:52:36;;;;;;;18.30;13.83;;;-0.30;99.90;;;;;;5011840;28;20296;-72
2021/01/19 01:55:03;;;;;;;20.43;13.07;;;-0.20;99.90;;;;;;5011371;28;20200;-70
2021/01/19 01:57:30;;;;;;;17.83;12.77;;;-0.30;99.90;;;;;;5011716;28;20208;-76
2021/01/19 02:00:00;;;;;;;19.60;13.77;;;-0.30;99.90;;;;;;5011566;28;20216;-71
2021/01/19 02:02:27;;;;;;;17.87;12.73;;;-0.40;99.90;;;;;;5011667;28;20204;-70
2021/01/19 02:04:53;;;;;;;21.47;13.90;;;-0.40;99.90;;;;;;5012062;28;20263;-70
2021/01/19 02:07:30;;;;;;;16.27;12.90;;;-0.20;99.90;;;;;;5011591;28;20208;-79
2021/01/19 02:10:07;;;;;;;22.30;12.17;;;-0.10;99.90;;;;;;5011072;28;20231;-71
2021/01/19 02:12:43;;;;;;;17.53;11.77;;;0.00;99.90;;;;;;5011243;28;20577;-73
2021/01/19 02:15:10;;;;;;;15.40;12.27;;;0.00;99.90;;;;;;5010894;28;20310;-77
2021/01/19 02:17:56;;;;;;;19.10;13.90;;;0.00;99.90;;;;;;5011188;28;20219;-74
2021/01/19 02:21:24;;;;;;;16.40;12.60;;;0.00;99.90;;;;;;5011627;28;20208;-73
2021/01/19 02:23:59;;;;;;;21.17;13.70;;;0.00;99.90;;;;;;4951270;28;20747;-79
2021/01/19 02:27:04;;;;;;;19.20;11.67;;;0.10;99.90;;;;;;4950800;28;20558;-73
2021/01/19 02:29:53;;;;;;;20.77;14.27;;;0.10;99.90;;;;;;4979346;28;20294;-80
2021/01/19 02:32:29;;;;;;;22.67;14.87;;;0.10;99.90;;;;;;4999011;28;20208;-79
2021/01/19 02:35:02;;;;;;;27.07;15.30;;;0.10;99.90;;;;;;5010653;28;20671;-79
2021/01/19 02:37:34;;;;;;;20.00;13.30;;;0.10;99.90;;;;;;5011081;28;20212;-80
2021/01/19 02:40:04;;;;;;;19.73;13.27;;;0.00;99.90;;;;;;5010428;28;20338;-73
2021/01/19 02:42:37;;;;;;;26.43;13.83;;;0.00;99.90;;;;;;5011534;28;20227;-79
2021/01/19 02:45:06;;;;;;;23.53;13.43;;;0.00;99.90;;;;;;5010409;28;20207;-78
2021/01/19 02:47:33;;;;;;;21.43;12.93;;;0.00;99.90;;;;;;5010808;28;20204;-80
2021/01/19 02:49:59;;;;;;;20.53;14.47;;;0.00;99.90;;;;;;5010343;28;20281;-75
2021/01/19 02:52:27;;;;;;;20.73;15.00;;;0.00;99.90;;;;;;5010737;28;20699;-79
2021/01/19 02:54:55;;;;;;;13.93;12.27;;;0.00;99.90;;;;;;5010590;28;20216;-77
2021/01/19 02:57:39;;;;;;;21.40;12.13;;;0.00;99.90;;;;;;5010719;28;20558;-79
2021/01/19 03:00:12;;;;;;;20.10;12.10;;;0.00;99.90;;;;;;5008953;28;20212;-79
2021/01/19 03:02:43;;;;;;;17.50;12.30;;;0.00;99.90;;;;;;5010832;28;20200;-72
2021/01/19 03:05:12;;;;;;;18.97;12.27;;;0.00;99.90;;;;;;5010460;28;20210;-80
2021/01/19 03:07:42;;;;;;;23.50;13.33;;;0.00;99.90;;;;;;5010820;28;20204;-80
2021/01/19 03:10:09;;;;;;;19.27;13.17;;;0.00;99.90;;;;;;5010329;28;20228;-80
2021/01/19 03:12:41;;;;;;;19.60;12.50;;;0.00;99.90;;;;;;5010928;28;20204;-78
2021/01/19 03:15:09;;;;;;;24.73;13.63;;;0.00;99.90;;;;;;5009954;28;20239;-79
2021/01/19 03:17:35;;;;;;;22.10;14.33;;;0.00;99.90;;;;;;5011066;28;20210;-78
2021/01/19 03:20:04;;;;;;;16.67;12.47;;;-0.10;99.90;;;;;;5010133;28;20204;-79
2021/01/19 03:22:31;;;;;;;22.23;12.70;;;-0.20;99.90;;;;;;5010862;28;20254;-79
2021/01/19 03:24:57;;;;;;;19.40;13.00;;;-0.30;99.90;;;;;;5010676;28;20208;-79
2021/01/19 03:27:24;;;;;;;20.23;12.60;;;-0.50;99.90;;;;;;5012530;28;20211;-71
2021/01/19 03:29:50;;;;;;;19.40;11.70;;;-0.60;99.90;;;;;;5014836;28;20231;-79
2021/01/19 03:32:17;;;;;;;18.33;11.33;;;-0.60;99.90;;;;;;5013760;28;20208;-79
2021/01/19 03:34:43;;;;;;;14.30;11.07;;;-0.60;99.90;;;;;;5014569;28;20702;-80
2021/01/19 03:37:10;;;;;;;17.13;12.03;;;-0.60;99.90;;;;;;5013859;28;20583;-76
2021/01/19 03:39:37;;;;;;;16.83;11.00;;;-0.60;99.90;;;;;;5014711;28;20267;-80
2021/01/19 03:42:04;;;;;;;21.53;11.63;;;-0.50;99.90;;;;;;5013935;28;20607;-79
2021/01/19 03:44:30;;;;;;;15.30;11.33;;;-0.50;99.90;;;;;;5014406;28;20229;-79
2021/01/19 03:46:57;;;;;;;19.47;12.10;;;-0.60;99.90;;;;;;5013990;28;20219;-76
2021/01/19 03:49:23;;;;;;;14.60;10.90;;;-0.60;99.90;;;;;;5013997;28;20596;-73
2021/01/19 03:51:50;;;;;;;16.83;10.40;;;-0.70;99.90;;;;;;5014480;28;20209;-79
2021/01/19 03:54:17;;;;;;;16.63;11.00;;;-0.70;99.90;;;;;;5013510;28;20240;-78
2021/01/19 03:56:44;;;;;;;22.13;12.67;;;-0.60;99.90;;;;;;5013864;28;20708;-79
2021/01/19 03:59:10;;;;;;;18.83;11.20;;;-0.50;99.90;;;;;;5013459;28;20212;-79
2021/01/19 04:01:40;;;;;;;18.17;12.40;;;-0.50;99.90;;;;;;5014504;28;20208;-79
2021/01/19 04:04:06;;;;;;;21.47;11.80;;;-0.50;99.90;;;;;;5013709;28;20301;-79
2021/01/19 04:06:33;;;;;;;17.27;11.17;;;-0.50;99.90;;;;;;5013622;28;20212;-79
2021/01/19 04:08:59;;;;;;;16.73;11.53;;;-0.40;99.90;;;;;;5013330;28;20650;-79
2021/01/19 04:11:27;;;;;;;18.33;11.97;;;-0.40;99.90;;;;;;5013584;28;20212;-78
2021/01/19 04:13:53;;;;;;;18.07;11.30;;;-0.40;99.90;;;;;;5013871;28;20291;-76
2021/01/19 04:16:20;;;;;;;13.03;9.70;;;-0.30;99.90;;;;;;5013954;28;20739;-79
2021/01/19 04:18:46;;;;;;;19.40;10.90;;;-0.40;99.90;;;;;;5013702;28;20686;-79
2021/01/19 04:21:13;;;;;;;13.20;9.70;;;-0.40;99.90;;;;;;5013196;28;20216;-79
2021/01/19 04:23:39;;;;;;;19.83;10.57;;;-0.40;99.90;;;;;;5013315;28;20211;-78
2021/01/19 04:26:06;;;;;;;14.57;10.27;;;-0.40;99.90;;;;;;5013187;28;20248;-75
2021/01/19 04:28:33;;;;;;;20.23;10.40;;;-0.40;99.90;;;;;;5013376;28;20263;-77
2021/01/19 04:30:59;;;;;;;16.70;10.57;;;-0.50;99.90;;;;;;5013435;28;20270;-78
2021/01/19 04:33:26;;;;;;;10.63;9.37;;;-0.50;99.90;;;;;;5013222;28;20212;-78
2021/01/19 04:35:52;;;;;;;18.23;10.40;;;-0.50;99.90;;;;;;5013860;28;20208;-74
2021/01/19 04:38:19;;;;;;;19.30;10.53;;;-0.50;99.90;;;;;;5013014;28;20583;-78
2021/01/19 04:40:45;;;;;;;17.50;10.77;;;-0.50;99.90;;;;;;5013635;28;20216;-75
2021/01/19 04:43:14;;;;;;;12.70;8.93;;;-0.60;99.90;;;;;;5012987;28;20584;-79
2021/01/19 04:45:43;;;;;;;17.77;11.07;;;-0.60;99.90;;;;;;5012886;28;20212;-80
2021/01/19 04:48:11;;;;;;;13.30;10.37;;;-0.70;99.90;;;;;;5010253;28;20205;-77
2021/01/19 04:50:37;;;;;;;16.47;11.73;;;-0.70;99.90;;;;;;5012712;28;20618;-73
2021/01/19 04:53:06;;;;;;;15.67;11.33;;;-0.80;99.90;;;;;;5012546;28;20204;-75
2021/01/19 04:55:43;;;;;;;14.60;10.93;;;-0.90;99.90;;;;;;5012862;28;20215;-76
2021/01/19 04:58:20;;;;;;;14.47;11.47;;;-0.90;99.90;;;;;;5011985;28;20197;-75
2021/01/19 05:01:04;;;;;;;19.13;11.13;;;-0.90;99.90;;;;;;5012941;28;20200;-76
2021/01/19 05:03:41;;;;;;;18.87;12.50;;;-0.90;99.90;;;;;;5008659;28;20200;-75
2021/01/19 05:06:16;;;;;;;19.03;11.60;;;-0.80;99.90;;;;;;5011248;28;20211;-76
2021/01/19 05:09:07;;;;;;;15.73;11.60;;;-0.80;99.90;;;;;;5011066;28;20236;-79
2021/01/19 05:11:49;;;;;;;17.13;11.80;;;-0.90;99.90;;;;;;5010295;28;20200;-76
2021/01/19 05:14:19;;;;;;;19.00;10.83;;;-0.80;99.90;;;;;;5012211;28;20215;-76
2021/01/19 05:16:49;;;;;;;14.80;10.70;;;-0.70;99.90;;;;;;5011998;28;20224;-74
2021/01/19 05:19:16;;;;;;;20.00;11.47;;;-0.80;99.90;;;;;;5012308;28;20216;-75
2021/01/19 05:21:46;;;;;;;18.53;11.60;;;-0.80;99.90;;;;;;5006774;28;20208;-77
2021/01/19 05:24:13;;;;;;;17.97;13.07;;;-0.80;99.90;;;;;;5011908;28;20215;-77
2021/01/19 05:26:42;;;;;;;16.00;10.67;;;-0.70;99.90;;;;;;5012293;28;20250;-77
2021/01/19 05:29:09;;;;;;;15.83;11.20;;;-0.80;99.90;;;;;;5012067;28;20317;-77
2021/01/19 05:31:35;;;;;;;17.20;8.43;;;-0.80;99.90;;;;;;5012173;28;20322;-77
2021/01/19 05:34:05;;;;;;;12.40;8.67;;;-0.90;99.90;;;;;;5011729;28;20664;-75
2021/01/19 05:36:43;;;;;;;13.17;8.67;;;-0.80;99.90;;;;;;5012412;28;20538;-77
2021/01/19 05:39:12;;;;;;;17.20;8.97;;;-0.80;99.90;;;;;;5007777;28;20204;-76
2021/01/19 05:41:41;;;;;;;14.97;9.70;;;-0.90;99.90;;;;;;5009554;28;20209;-78
2021/01/19 05:44:30;;;;;;;11.23;8.53;;;-0.80;99.90;;;;;;5011604;28;20291;-73
2021/01/19 05:47:05;;;;;;;15.90;8.83;;;-0.90;99.90;;;;;;5009397;28;20220;-79
2021/01/19 05:49:36;;;;;;;11.73;8.27;;;-0.80;99.90;;;;;;5011188;28;20223;-79
2021/01/19 05:52:05;;;;;;;17.47;8.60;;;-0.80;99.90;;;;;;5011290;28;20278;-74
2021/01/19 05:54:32;;;;;;;13.90;8.47;;;-0.80;99.90;;;;;;5011795;28;20208;-78
2021/01/19 05:57:01;;;;;;;10.83;9.10;;;-0.80;99.90;;;;;;5011264;28;20219;-77
2021/01/19 05:59:29;;;;;;;14.37;8.10;;;-0.80;99.90;;;;;;5011610;28;20295;-76
2021/01/19 06:02:01;;;;;;;9.80;7.20;;;-0.90;99.90;;;;;;5011444;28;20216;-75
2021/01/19 06:04:50;;;;;;;13.00;8.63;;;-1.00;99.90;;;;;;5011532;28;20207;-78
2021/01/19 06:07:19;;;;;;;24.17;14.10;;;-1.10;99.90;;;;;;5011318;28;20223;-75
2021/01/19 06:09:46;;;;;;;22.30;14.07;;;-1.10;99.90;;;;;;5011449;28;20306;-77
2021/01/19 06:12:13;;;;;;;23.83;12.97;;;-1.10;99.90;;;;;;5011122;28;20711;-73
2021/01/19 06:14:45;;;;;;;31.80;18.07;;;-1.20;99.90;;;;;;5010902;28;20695;-76
2021/01/19 06:17:14;;;;;;;21.97;12.47;;;-1.10;99.90;;;;;;5010968;28;20204;-78
2021/01/19 06:19:42;;;;;;;25.43;10.13;;;-1.10;99.90;;;;;;5011479;28;20211;-78
2021/01/19 06:22:14;;;;;;;13.43;8.60;;;-1.10;99.90;;;;;;5010949;28;20207;-80
2021/01/19 06:24:42;;;;;;;16.00;10.27;;;-1.10;99.90;;;;;;5011378;28;20207;-79
2021/01/19 06:27:11;;;;;;;17.97;9.90;;;-1.10;99.90;;;;;;5001116;28;20254;-80
2021/01/19 06:29:38;;;;;;;17.73;11.80;;;-1.20;99.90;;;;;;5011072;28;20243;-79
2021/01/19 06:32:10;;;;;;;19.77;11.43;;;-1.20;99.90;;;;;;5010434;28;20219;-79
2021/01/19 06:34:38;;;;;;;21.67;11.77;;;-1.20;99.90;;;;;;5011253;28;20204;-76
2021/01/19 06:37:08;;;;;;;23.40;13.40;;;-1.30;99.90;;;;;;5010578;28;20201;-71
2021/01/19 06:39:41;;;;;;;16.50;12.17;;;-1.30;99.90;;;;;;5011298;28;20212;-76
2021/01/19 06:42:13;;;;;;;20.93;12.77;;;-1.20;99.90;;;;;;5010516;28;20211;-75
2021/01/19 06:44:43;;;;;;;19.73;10.97;;;-1.20;99.90;;;;;;5010814;28;20583;-79
2021/01/19 06:47:10;;;;;;;17.57;12.50;;;-1.30;99.90;;;;;;5010420;28;20219;-76
2021/01/19 06:49:38;;;;;;;15.40;11.20;;;-1.40;99.90;;;;;;5010583;28;20602;-76
2021/01/19 06:52:08;;;;;;;14.77;10.17;;;-1.40;99.90;;;;;;5010327;28;20621;-74
2021/01/19 06:55:12;;;;;;;20.13;10.33;;;-1.40;99.90;;;;;;5011042;28;20204;-80
2021/01/19 06:58:08;;;;;;;16.47;12.67;;;-1.30;99.90;;;;;;5016224;28;20212;-77
2021/01/19 07:00:39;;;;;;;22.93;14.17;;;-1.20;99.90;;;;;;5006155;28;20246;-77
2021/01/19 07:03:18;;;;;;;20.47;13.40;;;-1.10;99.90;;;;;;5010491;28;20215;-76
2021/01/19 07:05:49;;;;;;;19.50;12.27;;;-1.10;99.90;;;;;;5010832;28;20258;-78
2021/01/19 07:08:51;;;;;;;23.83;12.73;;;-1.10;99.90;;;;;;5010276;28;20266;-78
2021/01/19 07:11:49;;;;;;;29.80;11.57;;;-1.10;99.90;;;;;;5010320;28;20203;-78
2021/01/19 07:14:39;;;;;;;14.20;11.03;;;-1.10;99.90;;;;;;5010262;28;20215;-78
2021/01/19 07:17:17;;;;;;;20.60;11.23;;;-1.00;99.90;;;;;;4998228;28;20586;-77
2021/01/19 07:19:48;;;;;;;20.30;10.80;;;-1.00;99.90;;;;;;5010435;28;20667;-75
2021/01/19 07:22:48;;;;;;;21.67;13.07;;;-1.00;99.90;;;;;;5010256;28;20219;-77
2021/01/19 07:25:15;;;;;;;21.07;11.03;;;-0.90;99.90;;;;;;5010165;28;20610;-77
2021/01/19 07:27:42;;;;;;;21.40;12.03;;;-0.90;99.90;;;;;;5010700;28;20211;-75
2021/01/19 07:30:11;;;;;;;22.23;12.77;;;-0.90;99.90;;;;;;5010186;28;20286;-80
2021/01/19 07:32:39;;;;;;;18.73;10.80;;;-0.90;99.90;;;;;;5010620;28;20216;-79
2021/01/19 07:35:07;;;;;;;21.70;14.10;;;-0.90;99.90;;;;;;5010171;28;20244;-82
2021/01/19 07:37:34;;;;;;;16.30;11.17;;;-0.90;99.90;;;;;;5010888;28;20554;-82
2021/01/19 07:40:01;;;;;;;24.40;12.10;;;-0.80;99.90;;;;;;5010629;28;20623;-81
2021/01/19 07:42:32;;;;;;;19.07;11.23;;;-0.80;99.90;;;;;;4997495;28;20694;-80
2021/01/19 07:45:00;;;;;;;18.47;11.77;;;-0.70;99.90;;;;;;5010460;28;20231;-79
2021/01/19 07:47:38;;;;;;;18.20;10.73;;;-0.60;99.90;;;;;;5010626;28;20676;-85
2021/01/19 07:50:07;;;;;;;18.73;10.80;;;-0.50;99.90;;;;;;5010382;28;20228;-79
2021/01/19 07:52:39;;;;;;;20.13;10.57;;;-0.40;99.90;;;;;;5010956;28;20216;-80
2021/01/19 07:55:14;;;;;;;14.73;10.90;;;-0.20;99.90;;;;;;5007012;28;20211;-83
2021/01/19 07:57:43;;;;;;;18.57;10.83;;;0.50;99.90;;;;;;5010931;28;20223;-77
2021/01/19 08:00:11;;;;;;;21.93;11.27;;;1.90;99.90;;;;;;5012182;28;20308;-85
2021/01/19 08:02:38;;;;;;;15.97;9.70;;;2.30;99.90;;;;;;5012692;28;20216;-76
2021/01/19 08:05:06;;;;;;;18.93;12.90;;;1.90;99.90;;;;;;5010900;28;20208;-82
2021/01/19 08:07:43;;;;;;;26.17;13.27;;;1.60;99.90;;;;;;5010616;28;20212;-77
2021/01/19 08:10:20;;;;;;;12.90;10.07;;;1.10;99.90;;;;;;5009904;28;20278;-80
2021/01/19 08:12:52;;;;;;;22.30;12.50;;;1.20;99.90;;;;;;5011086;28;20215;-84
2021/01/19 08:15:25;;;;;;;15.20;8.50;;;0.90;99.90;;;;;;5000371;28;20284;-77
2021/01/19 08:17:54;;;;;;;15.90;8.53;;;0.80;99.90;;;;;;5014168;28;20244;-80
2021/01/19 08:20:40;;;;;;;14.60;8.40;;;1.60;99.90;;;;;;5013846;28;20247;-77
2021/01/19 08:23:11;;;;;;;12.77;8.20;;;0.90;99.90;;;;;;5019843;28;20556;-77
2021/01/19 08:25:38;;;;;;;14.27;8.50;;;0.80;99.90;;;;;;5012295;28;20602;-78
2021/01/19 08:28:05;;;;;;;12.57;9.30;;;0.80;99.90;;;;;;5013525;28;20239;-77
2021/01/19 08:30:32;;;;;;;10.60;7.60;;;1.00;99.90;;;;;;5011105;28;20228;-79
2021/01/19 08:33:00;;;;;;;9.80;8.37;;;1.00;99.90;;;;;;5009725;28;20676;-75
2021/01/19 08:35:28;;;;;;;12.20;8.43;;;1.00;99.90;;;;;;5011846;28;20671;-75
2021/01/19 08:37:56;;;;;;;10.80;7.90;;;1.30;99.90;;;;;;5011494;28;20208;-72
2021/01/19 08:40:25;;;;;;;11.47;6.73;;;1.40;99.90;;;;;;5012732;28;20564;-72
2021/01/19 08:42:52;;;;;;;9.37;6.60;;;1.30;99.90;;;;;;5013630;28;20282;-76
2021/01/19 08:45:25;;;;;;;7.80;5.70;;;1.80;99.90;;;;;;5012996;28;20212;-73
2021/01/19 08:47:54;;;;;;;8.50;5.37;;;2.30;99.90;;;;;;5013122;28;20212;-78
2021/01/19 08:50:22;;;;;;;8.07;6.03;;;3.00;99.90;;;;;;5015233;28;20718;-78
2021/01/19 08:52:49;;;;;;;8.50;5.43;;;3.40;99.90;;;;;;5015026;28;20211;-78
2021/01/19 08:55:17;;;;;;;12.10;6.00;;;3.90;99.90;;;;;;5017355;28;20756;-80
2021/01/19 08:57:49;;;;;;;9.63;5.33;;;4.20;99.90;;;;;;5011814;28;20249;-73
2021/01/19 09:00:27;;;;;;;7.77;4.60;;;4.60;99.90;;;;;;5015722;28;20211;-78
2021/01/19 09:02:54;;;;;;;4.77;4.17;;;5.40;99.90;;;;;;5013437;28;20204;-78
2021/01/19 09:05:26;;;;;;;9.33;4.60;;;5.20;99.90;;;;;;5019425;28;20234;-75
2021/01/19 09:07:53;;;;;;;5.73;4.10;;;5.20;99.90;;;;;;5012096;28;20208;-74
2021/01/19 09:10:20;;;;;;;9.97;4.73;;;5.90;99.90;;;;;;5012995;28;20295;-77
2021/01/19 09:12:47;;;;;;;5.00;3.67;;;6.50;99.90;;;;;;5012379;28;20580;-74
2021/01/19 09:15:15;;;;;;;5.63;4.30;;;7.40;99.90;;;;;;5012132;28;20671;-78
2021/01/19 09:17:50;;;;;;;9.37;4.53;;;9.40;99.90;;;;;;5012606;28;20200;-77
2021/01/19 09:20:17;;;;;;;9.47;5.77;;;10.20;99.90;;;;;;5011988;28;20215;-76
2021/01/19 09:22:44;;;;;;;9.43;5.80;;;11.50;99.90;;;;;;5012205;28;20294;-78
2021/01/19 09:25:13;;;;;;;14.37;5.80;;;9.60;99.90;;;;;;5010762;28;20521;-77
2021/01/19 09:27:40;;;;;;;11.63;6.07;;;8.00;99.90;;;;;;5012288;28;20212;-77
2021/01/19 09:30:09;;;;;;;9.23;5.60;;;6.60;99.90;;;;;;5011809;28;20247;-77
2021/01/19 09:32:38;;;;;;;8.00;5.70;;;7.30;99.90;;;;;;5018507;28;20703;-75
2021/01/19 09:35:06;;;;;;;6.57;4.87;;;9.00;99.90;;;;;;5014228;28;20204;-77
2021/01/19 09:37:32;;;;;;;12.17;6.30;;;9.10;99.90;;;;;;5011244;28;20668;-75
2021/01/19 09:40:00;;;;;;;7.33;5.70;;;9.20;99.90;;;;;;5012496;28;20208;-77
2021/01/19 09:42:27;;;;;;;11.57;5.27;;;8.80;99.90;;;;;;5011465;28;20688;-77
2021/01/19 09:44:54;;;;;;;7.37;5.03;;;10.20;99.90;;;;;;5014795;28;20232;-76
2021/01/19 09:47:24;;;;;;;9.83;5.40;;;12.00;99.90;;;;;;5016837;28;20203;-78
2021/01/19 09:49:52;;;;;;;9.70;5.67;;;10.90;99.90;;;;;;5025355;28;20239;-75
2021/01/19 09:52:20;;;;;;;9.23;5.17;;;10.90;99.90;;;;;;5020879;28;20295;-78
2021/01/19 09:54:46;;;;;;;6.13;4.43;;;13.20;99.90;;;;;;5013316;28;20216;-74
2021/01/19 09:57:14;;;;;;;7.57;4.90;;;14.50;99.90;;;;;;5012006;28;20596;-73
2021/01/19 09:59:40;;;;;;;7.90;4.37;;;12.50;99.90;;;;;;5008736;28;20208;-76
2021/01/19 10:02:07;;;;;;;7.30;5.23;;;11.40;99.90;;;;;;5012543;28;20216;-76
2021/01/19 10:04:34;;;;;;;5.50;4.10;;;13.30;99.90;;;;;;5010337;28;20291;-76
2021/01/19 10:07:05;;;;;;;6.87;5.23;;;11.70;99.90;;;;;;5010503;28;20298;-76
2021/01/19 10:09:31;;;;;;;6.60;5.30;;;11.20;99.90;;;;;;5010946;28;20239;-77
2021/01/19 10:11:59;;;;;;;5.90;4.78;;;10.30;99.90;;;;;;5011307;28;20219;-80
2021/01/19 10:14:37;;;;;;;6.43;3.78;;;11.60;99.90;;;;;;5016846;28;20212;-79
2021/01/19 10:17:03;;;;;;;5.20;3.72;;;10.40;99.90;;;;;;5014649;28;20253;-75
2021/01/19 10:19:32;;;;;;;5.70;4.03;;;11.90;99.90;;;;;;5020887;28;20207;-80
2021/01/19 10:22:02;;;;;;;5.13;3.60;;;11.90;99.90;;;;;;5010825;28;20694;-74
2021/01/19 10:24:28;;;;;;;5.43;2.73;;;11.70;99.90;;;;;;5017362;28;20200;-75
2021/01/19 10:27:05;;;;;;;7.70;3.53;;;11.20;99.90;;;;;;5010230;28;20204;-73
2021/01/19 10:29:36;;;;;;;5.97;3.50;;;10.60;99.90;;;;;;5013968;28;20220;-75
2021/01/19 10:32:05;;;;;;;4.83;3.20;;;11.50;99.90;;;;;;5010561;28;20212;-74
2021/01/19 10:34:33;;;;;;;7.23;3.17;;;10.80;99.90;;;;;;5010864;28;20676;-75
2021/01/19 10:37:01;;;;;;;5.70;2.73;;;9.10;99.90;;;;;;5014533;28;20211;-73
2021/01/19 10:39:29;;;;;;;5.53;3.67;;;7.70;99.90;;;;;;5010937;28;20204;-75
2021/01/19 10:41:56;;;;;;;6.03;2.97;;;7.50;99.90;;;;;;5016840;28;20212;-74
2021/01/19 10:44:24;;;;;;;4.13;2.40;;;7.60;99.90;;;;;;5008857;28;20653;-77
2021/01/19 10:46:57;;;;;;;3.57;2.53;;;7.70;99.90;;;;;;5010312;28;20291;-74
2021/01/19 10:49:27;;;;;;;7.57;3.67;;;7.70;99.90;;;;;;5010039;28;20696;-74
2021/01/19 10:51:54;;;;;;;5.10;3.13;;;7.60;99.90;;;;;;5010858;28;20208;-75
2021/01/19 10:54:21;;;;;;;8.23;3.23;;;7.70;99.90;;;;;;5010812;28;20211;-74
2021/01/19 10:56:59;;;;;;;4.67;3.17;;;7.90;99.90;;;;;;5012646;28;20211;-76
2021/01/19 10:59:25;;;;;;;4.67;2.27;;;7.90;99.90;;;;;;5013352;28;20219;-75
2021/01/19 11:01:52;;;;;;;5.20;3.97;;;7.90;99.90;;;;;;5010773;28;20205;-74
2021/01/19 11:04:20;;;;;;;5.37;2.60;;;7.90;99.90;;;;;;5009268;28;20200;-74
2021/01/19 11:06:47;;;;;;;3.70;3.00;;;8.10;99.90;;;;;;5012903;28;20215;-75
2021/01/19 11:09:14;;;;;;;4.10;2.57;;;8.30;99.90;;;;;;5011124;28;20267;-75
2021/01/19 11:11:41;;;;;;;5.03;3.03;;;8.50;99.90;;;;;;5009249;28;20232;-74
2021/01/19 11:14:08;;;;;;;4.97;2.37;;;8.40;99.90;;;;;;5009917;28;20203;-77
2021/01/19 11:16:37;;;;;;;10.03;3.20;;;8.40;99.90;;;;;;5010014;28;20235;-75
2021/01/19 11:19:05;;;;;;;6.27;3.23;;;8.50;99.90;;;;;;5009940;28;20224;-75
2021/01/19 11:21:32;;;;;;;10.53;2.70;;;8.60;99.90;;;;;;5010583;28;20212;-78
2021/01/19 11:24:00;;;;;;;4.73;3.07;;;8.50;99.90;;;;;;5009396;28;20270;-77
2021/01/19 11:26:26;;;;;;;3.87;2.63;;;8.80;99.90;;;;;;5009920;28;20211;-76
2021/01/19 11:28:53;;;;;;;5.63;2.60;;;8.80;99.90;;;;;;5009141;28;20223;-76
2021/01/19 11:31:21;;;;;;;6.50;2.70;;;9.00;99.90;;;;;;5010318;28;20244;-76
2021/01/19 11:33:48;;;;;;;3.77;2.73;;;8.90;99.90;;;;;;5010294;28;20211;-77
2021/01/19 11:36:21;;;;;;;6.00;2.70;;;8.90;99.90;;;;;;5010259;28;20216;-77
2021/01/19 11:38:49;;;;;;;4.60;2.27;;;9.00;99.90;;;;;;5010567;28;20207;-72
2021/01/19 11:41:18;;;;;;;3.47;2.77;;;9.10;99.90;;;;;;5009926;28;20211;-76
2021/01/19 11:43:45;;;;;;;4.40;2.27;;;9.00;99.90;;;;;;5010497;28;20216;-76
2021/01/19 11:46:11;;;;;;;5.87;2.47;;;9.10;99.90;;;;;;5015015;28;20200;-76
2021/01/19 11:48:38;;;;;;;4.43;2.50;;;9.10;99.90;;;;;;5011455;28;20712;-76
2021/01/19 11:51:05;;;;;;;3.40;2.50;;;9.20;99.90;;;;;;5019569;28;20243;-75
2021/01/19 11:53:32;;;;;;;5.53;3.10;;;9.30;99.90;;;;;;5013583;28;20223;-75
2021/01/19 11:56:02;;;;;;;2.87;2.07;;;9.50;99.90;;;;;;5025303;28;20209;-78
2021/01/19 11:58:29;;;;;;;4.70;3.33;;;9.60;99.90;;;;;;5014290;28;20209;-78
2021/01/19 12:00:55;;;;;;;5.90;2.50;;;9.70;99.90;;;;;;5013651;28;20243;-78
2021/01/19 12:03:22;;;;;;;3.13;2.40;;;9.60;99.90;;;;;;5014355;28;20204;-78
2021/01/19 12:05:49;;;;;;;6.23;2.67;;;9.70;99.90;;;;;;5014052;28;20235;-78
2021/01/19 12:08:15;;;;;;;6.00;3.40;;;9.80;99.90;;;;;;5013495;28;20212;-77
2021/01/19 12:10:45;;;;;;;5.43;3.33;;;9.80;99.90;;;;;;5013844;28;20231;-76
2021/01/19 12:13:13;;;;;;;5.33;2.97;;;9.80;99.90;;;;;;5013179;28;20230;-75
2021/01/19 12:15:42;;;;;;;4.00;2.50;;;10.00;99.90;;;;;;5013942;28;20209;-77
2021/01/19 12:18:09;;;;;;;8.83;4.07;;;10.00;99.90;;;;;;5013121;28;20213;-75
2021/01/19 12:20:35;;;;;;;4.73;3.20;;;10.00;99.90;;;;;;5013569;28;20211;-76
2021/01/19 12:23:02;;;;;;;8.20;3.00;;;10.10;99.90;;;;;;5013204;28;20219;-78
2021/01/19 12:25:29;;;;;;;3.23;2.53;;;10.10;99.90;;;;;;5000076;28;20702;-78
2021/01/19 12:27:55;;;;;;;5.97;3.37;;;10.00;99.90;;;;;;5013492;28;20247;-78
2021/01/19 12:30:24;;;;;;;3.53;2.70;;;10.20;99.90;;;;;;5013727;28;20244;-76
2021/01/19 12:32:52;;;;;;;3.87;2.97;;;10.30;99.90;;;;;;5013790;28;20208;-78
2021/01/19 12:35:19;;;;;;;3.23;2.83;;;10.30;99.90;;;;;;5013050;28;20730;-76
2021/01/19 12:37:45;;;;;;;10.63;5.00;;;10.30;99.90;;;;;;5013338;28;20684;-77
2021/01/19 12:40:13;;;;;;;4.07;3.03;;;10.20;99.90;;;;;;5013016;28;20208;-77
2021/01/19 12:42:39;;;;;;;7.90;3.30;;;10.30;99.90;;;;;;5013356;28;20262;-78
2021/01/19 12:45:07;;;;;;;5.63;3.17;;;10.20;99.90;;;;;;5012940;28;20204;-78
2021/01/19 12:47:34;;;;;;;4.90;3.07;;;10.20;99.90;;;;;;5013119;28;20683;-79
2021/01/19 12:50:01;;;;;;;6.13;3.00;;;10.40;99.90;;;;;;5012733;28;20236;-78
2021/01/19 12:52:27;;;;;;;4.73;2.67;;;10.60;99.90;;;;;;5013086;28;20200;-78